« Back
NWS Peachtree City, Ga » Text Product » AHN Terminal Aerodrome Forecast


Printer-friendly Version
Current Version              Previous Versions:   1  2  3  4  5  6  7  8  9  

Terminal Aerodrome Forecast

837
FTUS42 KFFC 212300
TAFAHN
TAF
KAHN 212334Z 2200/2224 31004KT P6SM SKC
     FM221500 35007KT P6SM SKC=



USA.gov is the U.S. government's official web portal to all federal, state and local government web resources and services.